Terminal Aerodrome Forecast
Issued by NWS

Home | Current Version | Previous Version | Text Only | Print | Product List | Glossary On
Versions: 1 2 3 4 5 6 7 8 9 10 11 12 13 14 15 16 17 18 19 20 21 22 23 24 25 26 27 28 29 30 31 32 33 34 35 36 37 38 39 40 41 42 43 44 45 46 47 48 49 50
000
FTUS41 KCTP 202025 AAA
TAFJST
TAF AMD
KJST 202025Z 2020/2118 26008G18KT P6SM VCSH SCT015 BKN025
      TEMPO 2021/2101 4SM -SHRA BR OVC035
     FM210100 28009KT 4SM -SHRA BR VCTS OVC008CB
     FM210300 28013G20KT 1SM -SHRA BR OVC004
     FM210600 30015G23KT 4SM -SHRA BR OVC004
     FM211200 31016G22KT 5SM BR OVC006
     FM211500 31016G22KT P6SM BKN012=

USA.gov is the U.S. government's official web portal to all federal, state and local government web resources and services.